sensor_id;sensor_type;location;lat;lon;timestamp;pressure;altitude;pressure_sealevel;temperature;humidity
15678;BME280;7939;50.814;6.368;2023-02-08T00:00:16;102082.25;;;6.95;55.33
15678;BME280;7939;50.814;6.368;2023-02-08T00:02:43;102078.03;;;6.96;55.37
15678;BME280;7939;50.814;6.368;2023-02-08T00:05:10;102079.56;;;6.92;55.53
15678;BME280;7939;50.814;6.368;2023-02-08T00:07:36;102071.94;;;6.92;56.07
15678;BME280;7939;50.814;6.368;2023-02-08T00:10:04;102070.09;;;6.90;55.36
15678;BME280;7939;50.814;6.368;2023-02-08T00:12:31;102072.81;;;6.93;55.79
15678;BME280;7939;50.814;6.368;2023-02-08T00:14:59;102072.00;;;6.94;55.02
15678;BME280;7939;50.814;6.368;2023-02-08T00:17:26;102064.06;;;6.88;55.86
15678;BME280;7939;50.814;6.368;2023-02-08T00:19:52;102055.50;;;6.86;55.31
15678;BME280;7939;50.814;6.368;2023-02-08T00:22:19;102053.03;;;6.87;55.94
15678;BME280;7939;50.814;6.368;2023-02-08T00:24:46;102051.19;;;6.85;55.52
15678;BME280;7939;50.814;6.368;2023-02-08T00:27:12;102049.63;;;6.87;55.35
15678;BME280;7939;50.814;6.368;2023-02-08T00:29:40;102046.03;;;6.83;54.97
15678;BME280;7939;50.814;6.368;2023-02-08T00:32:07;102054.38;;;6.81;55.77
15678;BME280;7939;50.814;6.368;2023-02-08T00:34:35;102049.44;;;6.84;55.18
15678;BME280;7939;50.814;6.368;2023-02-08T00:37:01;102053.56;;;6.82;55.86
15678;BME280;7939;50.814;6.368;2023-02-08T00:39:28;102048.50;;;6.82;56.01
15678;BME280;7939;50.814;6.368;2023-02-08T00:41:55;102050.25;;;6.83;55.11
15678;BME280;7939;50.814;6.368;2023-02-08T00:44:21;102045.16;;;6.83;54.82
15678;BME280;7939;50.814;6.368;2023-02-08T00:46:48;102044.13;;;6.79;55.81
15678;BME280;7939;50.814;6.368;2023-02-08T00:49:16;102051.59;;;6.76;54.96
15678;BME280;7939;50.814;6.368;2023-02-08T00:51:42;102049.28;;;6.81;55.32
15678;BME280;7939;50.814;6.368;2023-02-08T00:54:12;102048.44;;;6.80;55.80
15678;BME280;7939;50.814;6.368;2023-02-08T00:56:39;102050.88;;;6.79;54.90
15678;BME280;7939;50.814;6.368;2023-02-08T00:59:05;102045.72;;;6.77;55.09
15678;BME280;7939;50.814;6.368;2023-02-08T01:01:32;102045.78;;;6.79;55.47
15678;BME280;7939;50.814;6.368;2023-02-08T01:03:59;102048.09;;;6.74;54.90
15678;BME280;7939;50.814;6.368;2023-02-08T01:06:27;102044.69;;;6.73;54.85
15678;BME280;7939;50.814;6.368;2023-02-08T01:08:53;102047.84;;;6.69;54.79
15678;BME280;7939;50.814;6.368;2023-02-08T01:11:22;102046.13;;;6.68;55.13
15678;BME280;7939;50.814;6.368;2023-02-08T01:13:50;102043.41;;;6.65;54.82
15678;BME280;7939;50.814;6.368;2023-02-08T01:16:19;102052.69;;;6.65;55.65
15678;BME280;7939;50.814;6.368;2023-02-08T01:18:47;102047.53;;;6.63;55.59
15678;BME280;7939;50.814;6.368;2023-02-08T01:21:16;102047.84;;;6.69;55.55
15678;BME280;7939;50.814;6.368;2023-02-08T01:23:45;102045.78;;;6.62;54.65
15678;BME280;7939;50.814;6.368;2023-02-08T01:26:12;102043.50;;;6.67;55.05
15678;BME280;7939;50.814;6.368;2023-02-08T01:28:40;102035.78;;;6.65;55.35
15678;BME280;7939;50.814;6.368;2023-02-08T01:31:08;102041.91;;;6.69;55.65
15678;BME280;7939;50.814;6.368;2023-02-08T01:33:36;102044.06;;;6.61;55.53
15678;BME280;7939;50.814;6.368;2023-02-08T01:36:04;102044.06;;;6.61;55.78
15678;BME280;7939;50.814;6.368;2023-02-08T01:38:31;102036.56;;;6.64;54.87
15678;BME280;7939;50.814;6.368;2023-02-08T01:40:59;102035.72;;;6.64;55.08
15678;BME280;7939;50.814;6.368;2023-02-08T01:43:28;102030.38;;;6.59;55.34
15678;BME280;7939;50.814;6.368;2023-02-08T01:45:55;102032.59;;;6.53;54.82
15678;BME280;7939;50.814;6.368;2023-02-08T01:48:24;102026.81;;;6.56;54.98
15678;BME280;7939;50.814;6.368;2023-02-08T01:50:55;102034.25;;;6.53;54.82
15678;BME280;7939;50.814;6.368;2023-02-08T01:53:25;102024.09;;;6.53;55.84
15678;BME280;7939;50.814;6.368;2023-02-08T01:55:55;102038.66;;;6.55;54.94
15678;BME280;7939;50.814;6.368;2023-02-08T01:58:25;102034.25;;;6.53;54.73
15678;BME280;7939;50.814;6.368;2023-02-08T02:00:53;102026.66;;;6.53;55.30
15678;BME280;7939;50.814;6.368;2023-02-08T02:03:21;102023.16;;;6.51;54.79
15678;BME280;7939;50.814;6.368;2023-02-08T02:05:51;102032.44;;;6.50;55.34
15678;BME280;7939;50.814;6.368;2023-02-08T02:08:19;102024.03;;;6.51;55.65
15678;BME280;7939;50.814;6.368;2023-02-08T02:10:47;102017.28;;;6.52;55.37
15678;BME280;7939;50.814;6.368;2023-02-08T02:13:17;102020.47;;;6.47;55.66
15678;BME280;7939;50.814;6.368;2023-02-08T02:15:46;102024.75;;;6.48;55.08
15678;BME280;7939;50.814;6.368;2023-02-08T02:18:18;102031.56;;;6.49;55.54
15678;BME280;7939;50.814;6.368;2023-02-08T02:21:10;102030.78;;;6.51;54.92
15678;BME280;7939;50.814;6.368;2023-02-08T02:24:08;102031.25;;;6.43;55.49
15678;BME280;7939;50.814;6.368;2023-02-08T02:26:57;102020.31;;;6.44;55.49
15678;BME280;7939;50.814;6.368;2023-02-08T02:29:46;102023.72;;;6.45;55.64
15678;BME280;7939;50.814;6.368;2023-02-08T02:32:38;102023.72;;;6.45;55.37
15678;BME280;7939;50.814;6.368;2023-02-08T02:35:15;102021.09;;;6.43;55.52
15678;BME280;7939;50.814;6.368;2023-02-08T02:37:51;102026.97;;;6.42;55.03
15678;BME280;7939;50.814;6.368;2023-02-08T02:40:27;102027.91;;;6.44;55.61
15678;BME280;7939;50.814;6.368;2023-02-08T02:43:06;102026.00;;;6.40;55.21
15678;BME280;7939;50.814;6.368;2023-02-08T02:45:57;102026.88;;;6.41;54.89
15678;BME280;7939;50.814;6.368;2023-02-08T02:48:30;102019.19;;;6.39;55.18
15678;BME280;7939;50.814;6.368;2023-02-08T02:51:02;102022.59;;;6.40;54.95
15678;BME280;7939;50.814;6.368;2023-02-08T02:53:36;102022.75;;;6.43;55.07
15678;BME280;7939;50.814;6.368;2023-02-08T02:56:10;102026.66;;;6.36;55.33
15678;BME280;7939;50.814;6.368;2023-02-08T02:58:39;102025.78;;;6.36;55.41
15678;BME280;7939;50.814;6.368;2023-02-08T03:01:06;102022.97;;;6.31;55.78
15678;BME280;7939;50.814;6.368;2023-02-08T03:03:34;102017.91;;;6.31;55.60
15678;BME280;7939;50.814;6.368;2023-02-08T03:06:03;102018.63;;;6.29;55.46
15678;BME280;7939;50.814;6.368;2023-02-08T03:08:59;102016.97;;;6.29;55.41
15678;BME280;7939;50.814;6.368;2023-02-08T03:11:32;102019.16;;;6.23;55.02
15678;BME280;7939;50.814;6.368;2023-02-08T03:14:25;102013.84;;;6.18;55.46
15678;BME280;7939;50.814;6.368;2023-02-08T03:17:02;102007.88;;;6.18;55.18
15678;BME280;7939;50.814;6.368;2023-02-08T03:19:35;102009.63;;;6.19;55.07
15678;BME280;7939;50.814;6.368;2023-02-08T03:22:11;102007.25;;;6.22;55.49
15678;BME280;7939;50.814;6.368;2023-02-08T03:24:45;102005.34;;;6.18;55.27
15678;BME280;7939;50.814;6.368;2023-02-08T03:27:19;102002.63;;;6.15;55.54
15678;BME280;7939;50.814;6.368;2023-02-08T03:29:53;102000.09;;;6.15;55.70
15678;BME280;7939;50.814;6.368;2023-02-08T03:32:25;102003.50;;;6.15;55.26
15678;BME280;7939;50.814;6.368;2023-02-08T03:35:01;102007.72;;;6.15;54.70
15678;BME280;7939;50.814;6.368;2023-02-08T03:37:32;102003.44;;;6.14;55.16
15678;BME280;7939;50.814;6.368;2023-02-08T03:40:06;102002.81;;;6.18;54.62
15678;BME280;7939;50.814;6.368;2023-02-08T03:42:34;102008.69;;;6.17;55.38
15678;BME280;7939;50.814;6.368;2023-02-08T03:45:06;102008.44;;;6.12;54.57
15678;BME280;7939;50.814;6.368;2023-02-08T03:47:37;102005.16;;;6.15;54.40
15678;BME280;7939;50.814;6.368;2023-02-08T03:50:08;102006.03;;;6.15;54.81
15678;BME280;7939;50.814;6.368;2023-02-08T03:52:36;102007.72;;;6.15;54.36
15678;BME280;7939;50.814;6.368;2023-02-08T03:55:09;102001.75;;;6.14;54.98
15678;BME280;7939;50.814;6.368;2023-02-08T03:57:41;102002.41;;;6.10;54.53
15678;BME280;7939;50.814;6.368;2023-02-08T04:00:11;102004.84;;;6.09;54.89
15678;BME280;7939;50.814;6.368;2023-02-08T04:02:43;101995.03;;;6.15;54.82
15678;BME280;7939;50.814;6.368;2023-02-08T04:05:14;102004.94;;;6.10;54.31
15678;BME280;7939;50.814;6.368;2023-02-08T04:07:41;102008.44;;;6.12;54.37
15678;BME280;7939;50.814;6.368;2023-02-08T04:10:07;102005.72;;;6.09;54.85
15678;BME280;7939;50.814;6.368;2023-02-08T04:12:34;102001.44;;;6.08;54.91
15678;BME280;7939;50.814;6.368;2023-02-08T04:15:01;102005.72;;;6.09;55.05
15678;BME280;7939;50.814;6.368;2023-02-08T04:17:27;102009.84;;;6.07;54.09
15678;BME280;7939;50.814;6.368;2023-02-08T04:19:54;102003.91;;;6.07;54.38
15678;BME280;7939;50.814;6.368;2023-02-08T04:22:22;102008.09;;;6.06;54.32
15678;BME280;7939;50.814;6.368;2023-02-08T04:24:49;102003.09;;;6.08;54.62
15678;BME280;7939;50.814;6.368;2023-02-08T04:27:16;101998.22;;;6.11;55.06
15678;BME280;7939;50.814;6.368;2023-02-08T04:29:42;101999.53;;;6.04;54.27
15678;BME280;7939;50.814;6.368;2023-02-08T04:32:09;101996.28;;;6.07;54.71
15678;BME280;7939;50.814;6.368;2023-02-08T04:34:36;102001.09;;;6.02;54.56
15678;BME280;7939;50.814;6.368;2023-02-08T04:37:03;102002.84;;;6.03;54.28
15678;BME280;7939;50.814;6.368;2023-02-08T04:39:31;102007.91;;;6.03;54.60
15678;BME280;7939;50.814;6.368;2023-02-08T04:41:58;102011.97;;;6.00;54.43
15678;BME280;7939;50.814;6.368;2023-02-08T04:44:25;102012.84;;;6.00;54.40
15678;BME280;7939;50.814;6.368;2023-02-08T04:46:52;102021.25;;;5.99;54.88
15678;BME280;7939;50.814;6.368;2023-02-08T04:49:19;102016.19;;;5.99;54.78
15678;BME280;7939;50.814;6.368;2023-02-08T04:51:46;102019.50;;;5.98;54.46
15678;BME280;7939;50.814;6.368;2023-02-08T04:54:12;102013.47;;;5.96;54.79
15678;BME280;7939;50.814;6.368;2023-02-08T04:56:40;102009.25;;;5.97;54.89
15678;BME280;7939;50.814;6.368;2023-02-08T04:59:07;102011.09;;;5.99;54.37
15678;BME280;7939;50.814;6.368;2023-02-08T05:01:34;102011.03;;;5.98;54.38
15678;BME280;7939;50.814;6.368;2023-02-08T05:04:00;102013.47;;;5.96;54.31
15678;BME280;7939;50.814;6.368;2023-02-08T05:06:27;102012.34;;;5.91;54.72
15678;BME280;7939;50.814;6.368;2023-02-08T05:08:53;102001.50;;;5.93;54.29
15678;BME280;7939;50.814;6.368;2023-02-08T05:11:21;102009.91;;;5.92;54.79
15678;BME280;7939;50.814;6.368;2023-02-08T05:13:50;102000.63;;;5.93;54.38
15678;BME280;7939;50.814;6.368;2023-02-08T05:16:17;102006.50;;;5.92;54.72
15678;BME280;7939;50.814;6.368;2023-02-08T05:18:44;102004.59;;;5.89;54.86
15678;BME280;7939;50.814;6.368;2023-02-08T05:21:10;102001.19;;;5.89;54.41
15678;BME280;7939;50.814;6.368;2023-02-08T05:23:37;102008.47;;;5.83;54.57
15678;BME280;7939;50.814;6.368;2023-02-08T05:26:05;102006.13;;;5.86;54.47
15678;BME280;7939;50.814;6.368;2023-02-08T05:28:32;102005.31;;;5.87;55.20
15678;BME280;7939;50.814;6.368;2023-02-08T05:31:07;102001.19;;;5.89;54.26
15678;BME280;7939;50.814;6.368;2023-02-08T05:33:34;102001.84;;;5.85;55.10
15678;BME280;7939;50.814;6.368;2023-02-08T05:36:01;102002.88;;;5.88;54.58
15678;BME280;7939;50.814;6.368;2023-02-08T05:38:27;101996.03;;;5.87;54.77
15678;BME280;7939;50.814;6.368;2023-02-08T05:40:54;102008.53;;;5.84;54.73
15678;BME280;7939;50.814;6.368;2023-02-08T05:43:21;102005.13;;;5.84;55.21
15678;BME280;7939;50.814;6.368;2023-02-08T05:45:49;102007.78;;;5.85;54.77
15678;BME280;7939;50.814;6.368;2023-02-08T05:48:17;102015.13;;;5.81;54.88
15678;BME280;7939;50.814;6.368;2023-02-08T05:50:43;102019.34;;;5.80;54.77
15678;BME280;7939;50.814;6.368;2023-02-08T05:53:10;102016.94;;;5.83;54.69
15678;BME280;7939;50.814;6.368;2023-02-08T05:55:37;102020.28;;;5.82;54.68
15678;BME280;7939;50.814;6.368;2023-02-08T05:58:03;102019.16;;;5.77;55.16
15678;BME280;7939;50.814;6.368;2023-02-08T06:00:30;102019.00;;;5.74;54.17
15678;BME280;7939;50.814;6.368;2023-02-08T06:02:57;102025.75;;;5.74;55.06
15678;BME280;7939;50.814;6.368;2023-02-08T06:05:26;102015.75;;;5.77;54.55
15678;BME280;7939;50.814;6.368;2023-02-08T06:07:53;102019.00;;;5.74;54.93
15678;BME280;7939;50.814;6.368;2023-02-08T06:10:20;102011.31;;;5.73;54.68
15678;BME280;7939;50.814;6.368;2023-02-08T06:12:46;102017.00;;;5.68;54.96
15678;BME280;7939;50.814;6.368;2023-02-08T06:15:13;102011.91;;;5.68;54.50
15678;BME280;7939;50.814;6.368;2023-02-08T06:17:39;102013.50;;;5.66;54.91
15678;BME280;7939;50.814;6.368;2023-02-08T06:20:07;102010.19;;;5.67;54.69
15678;BME280;7939;50.814;6.368;2023-02-08T06:22:35;102008.31;;;5.65;54.78
15678;BME280;7939;50.814;6.368;2023-02-08T06:25:02;102013.25;;;5.62;54.79
15678;BME280;7939;50.814;6.368;2023-02-08T06:27:28;102019.91;;;5.60;55.14
15678;BME280;7939;50.814;6.368;2023-02-08T06:29:55;102018.38;;;5.63;54.96
15678;BME280;7939;50.814;6.368;2023-02-08T06:32:21;102013.25;;;5.62;54.78
15678;BME280;7939;50.814;6.368;2023-02-08T06:34:48;102014.91;;;5.61;54.63
15678;BME280;7939;50.814;6.368;2023-02-08T06:37:15;102017.53;;;5.63;54.56
15678;BME280;7939;50.814;6.368;2023-02-08T06:39:43;102020.94;;;5.63;54.21
15678;BME280;7939;50.814;6.368;2023-02-08T06:42:10;102021.53;;;5.59;54.57
15678;BME280;7939;50.814;6.368;2023-02-08T06:44:36;102031.59;;;5.58;54.46
15678;BME280;7939;50.814;6.368;2023-02-08T06:47:03;102023.13;;;5.57;54.92
15678;BME280;7939;50.814;6.368;2023-02-08T06:49:30;102024.06;;;5.59;54.42
15678;BME280;7939;50.814;6.368;2023-02-08T06:51:56;102019.78;;;5.58;54.67
15678;BME280;7939;50.814;6.368;2023-02-08T06:54:23;102020.44;;;5.54;54.18
15678;BME280;7939;50.814;6.368;2023-02-08T06:56:51;102021.22;;;5.53;54.48
15678;BME280;7939;50.814;6.368;2023-02-08T06:59:17;102020.44;;;5.54;54.24
15678;BME280;7939;50.814;6.368;2023-02-08T07:01:44;102021.97;;;5.52;54.15
15678;BME280;7939;50.814;6.368;2023-02-08T07:04:10;102026.19;;;5.52;54.37
15678;BME280;7939;50.814;6.368;2023-02-08T07:06:37;102016.91;;;5.52;54.44
15678;BME280;7939;50.814;6.368;2023-02-08T07:09:04;102012.81;;;5.54;54.23
15678;BME280;7939;50.814;6.368;2023-02-08T07:11:30;102012.63;;;5.51;54.19
15678;BME280;7939;50.814;6.368;2023-02-08T07:13:58;102003.28;;;5.50;54.38
15678;BME280;7939;50.814;6.368;2023-02-08T07:16:25;102001.53;;;5.49;54.57
15678;BME280;7939;50.814;6.368;2023-02-08T07:18:52;102004.22;;;5.52;54.73
15678;BME280;7939;50.814;6.368;2023-02-08T07:21:18;102001.69;;;5.52;54.38
15678;BME280;7939;50.814;6.368;2023-02-08T07:23:46;101996.53;;;5.51;54.63
15678;BME280;7939;50.814;6.368;2023-02-08T07:26:12;102003.13;;;5.47;54.30
15678;BME280;7939;50.814;6.368;2023-02-08T07:28:40;102000.66;;;5.49;54.37
15678;BME280;7939;50.814;6.368;2023-02-08T07:31:09;101998.13;;;5.49;53.92
15678;BME280;7939;50.814;6.368;2023-02-08T07:33:37;101988.00;;;5.49;54.00
15678;BME280;7939;50.814;6.368;2023-02-08T07:36:04;101987.13;;;5.48;54.28
15678;BME280;7939;50.814;6.368;2023-02-08T07:38:32;101999.78;;;5.48;54.47
15678;BME280;7939;50.814;6.368;2023-02-08T07:41:00;102001.34;;;5.46;54.39
15678;BME280;7939;50.814;6.368;2023-02-08T07:43:27;101996.28;;;5.46;54.37
15678;BME280;7939;50.814;6.368;2023-02-08T07:45:54;102001.97;;;5.42;54.54
15678;BME280;7939;50.814;6.368;2023-02-08T07:48:22;102008.88;;;5.45;54.29
15678;BME280;7939;50.814;6.368;2023-02-08T07:50:49;102008.19;;;5.47;54.69
15678;BME280;7939;50.814;6.368;2023-02-08T07:53:16;102007.41;;;5.48;54.46
15678;BME280;7939;50.814;6.368;2023-02-08T07:55:44;102004.75;;;5.47;54.64
15678;BME280;7939;50.814;6.368;2023-02-08T07:58:11;102005.66;;;5.47;54.54
15678;BME280;7939;50.814;6.368;2023-02-08T08:00:38;102004.75;;;5.47;54.96
15678;BME280;7939;50.814;6.368;2023-02-08T08:03:05;101998.91;;;5.48;54.76
15678;BME280;7939;50.814;6.368;2023-02-08T08:05:32;101995.41;;;5.46;55.14
15678;BME280;7939;50.814;6.368;2023-02-08T08:07:59;101999.69;;;5.47;54.71
15678;BME280;7939;50.814;6.368;2023-02-08T08:10:26;101994.72;;;5.48;54.95
15678;BME280;7939;50.814;6.368;2023-02-08T08:12:52;101998.81;;;5.46;54.89
15678;BME280;7939;50.814;6.368;2023-02-08T08:15:19;102001.47;;;5.48;55.19
15678;BME280;7939;50.814;6.368;2023-02-08T08:17:45;101992.25;;;5.50;55.35
15678;BME280;7939;50.814;6.368;2023-02-08T08:20:12;101994.00;;;5.51;55.03
15678;BME280;7939;50.814;6.368;2023-02-08T08:22:40;101983.06;;;5.52;55.41
15678;BME280;7939;50.814;6.368;2023-02-08T08:25:07;101989.00;;;5.52;55.16
15678;BME280;7939;50.814;6.368;2023-02-08T08:27:33;101989.81;;;5.51;54.86
15678;BME280;7939;50.814;6.368;2023-02-08T08:30:00;101995.06;;;5.54;55.22
15678;BME280;7939;50.814;6.368;2023-02-08T08:32:27;101999.00;;;5.49;54.83
15678;BME280;7939;50.814;6.368;2023-02-08T08:34:53;101996.72;;;5.54;55.11
15678;BME280;7939;50.814;6.368;2023-02-08T08:37:20;101997.69;;;5.56;55.20
15678;BME280;7939;50.814;6.368;2023-02-08T08:39:48;101998.22;;;5.50;55.30
15678;BME280;7939;50.814;6.368;2023-02-08T08:42:15;102002.22;;;5.47;55.30
15678;BME280;7939;50.814;6.368;2023-02-08T08:44:41;101989.47;;;5.45;55.43
15678;BME280;7939;50.814;6.368;2023-02-08T08:47:08;101994.44;;;5.44;54.75
15678;BME280;7939;50.814;6.368;2023-02-08T08:49:35;101992.41;;;5.53;54.98
15678;BME280;7939;50.814;6.368;2023-02-08T08:52:02;101988.25;;;5.53;55.16
15678;BME280;7939;50.814;6.368;2023-02-08T08:54:30;101990.88;;;5.55;54.79
15678;BME280;7939;50.814;6.368;2023-02-08T08:56:58;101992.59;;;5.56;55.03
15678;BME280;7939;50.814;6.368;2023-02-08T08:59:25;101985.53;;;5.50;54.77
15678;BME280;7939;50.814;6.368;2023-02-08T09:01:52;101987.53;;;5.56;55.45
15678;BME280;7939;50.814;6.368;2023-02-08T09:04:18;101987.19;;;5.50;54.87
15678;BME280;7939;50.814;6.368;2023-02-08T09:06:47;101977.22;;;5.53;55.16
15678;BME280;7939;50.814;6.368;2023-02-08T09:09:14;101984.06;;;5.54;54.91
15678;BME280;7939;50.814;6.368;2023-02-08T09:11:41;101977.31;;;5.54;55.08
15678;BME280;7939;50.814;6.368;2023-02-08T09:14:09;101980.19;;;5.60;55.14
15678;BME280;7939;50.814;6.368;2023-02-08T09:16:36;101974.41;;;5.63;55.02
15678;BME280;7939;50.814;6.368;2023-02-08T09:19:03;101971.44;;;5.55;54.91
15678;BME280;7939;50.814;6.368;2023-02-08T09:21:30;101972.41;;;5.57;55.44
15678;BME280;7939;50.814;6.368;2023-02-08T09:23:57;101975.34;;;5.65;54.62
15678;BME280;7939;50.814;6.368;2023-02-08T09:26:23;101974.31;;;5.61;54.57
15678;BME280;7939;50.814;6.368;2023-02-08T09:28:51;101984.00;;;5.68;54.96
15678;BME280;7939;50.814;6.368;2023-02-08T09:31:20;101983.47;;;5.74;54.65
15678;BME280;7939;50.814;6.368;2023-02-08T09:33:49;101983.63;;;5.77;54.46
15678;BME280;7939;50.814;6.368;2023-02-08T09:36:17;101982.63;;;5.59;54.08
15678;BME280;7939;50.814;6.368;2023-02-08T09:38:48;101982.63;;;5.74;54.68
15678;BME280;7939;50.814;6.368;2023-02-08T09:41:26;101982.97;;;5.65;54.12
15678;BME280;7939;50.814;6.368;2023-02-08T09:44:09;101984.97;;;5.71;54.69
15678;BME280;7939;50.814;6.368;2023-02-08T09:46:42;101984.16;;;5.72;54.30
15678;BME280;7939;50.814;6.368;2023-02-08T09:49:15;101982.44;;;5.71;54.59
15678;BME280;7939;50.814;6.368;2023-02-08T09:51:45;101984.75;;;5.82;54.66
15678;BME280;7939;50.814;6.368;2023-02-08T09:54:18;101974.53;;;5.81;54.23
15678;BME280;7939;50.814;6.368;2023-02-08T09:56:46;101979.09;;;5.86;54.22
15678;BME280;7939;50.814;6.368;2023-02-08T09:59:16;101981.44;;;5.83;54.11
15678;BME280;7939;50.814;6.368;2023-02-08T10:01:48;101981.97;;;5.78;53.62
15678;BME280;7939;50.814;6.368;2023-02-08T10:04:22;101989.44;;;5.75;53.12
15678;BME280;7939;50.814;6.368;2023-02-08T10:06:50;101994.22;;;5.85;53.48
15678;BME280;7939;50.814;6.368;2023-02-08T10:09:20;101989.94;;;5.99;53.81
15678;BME280;7939;50.814;6.368;2023-02-08T10:11:54;101988.06;;;5.96;54.45
15678;BME280;7939;50.814;6.368;2023-02-08T10:14:41;101988.34;;;5.86;51.76
15678;BME280;7939;50.814;6.368;2023-02-08T10:17:27;101975.50;;;5.98;52.90
15678;BME280;7939;50.814;6.368;2023-02-08T10:20:04;101980.44;;;6.11;53.88
15678;BME280;7939;50.814;6.368;2023-02-08T10:22:45;101974.91;;;6.18;54.10
15678;BME280;7939;50.814;6.368;2023-02-08T10:25:29;101966.41;;;6.17;54.21
15678;BME280;7939;50.814;6.368;2023-02-08T10:28:15;101969.81;;;6.18;53.17
15678;BME280;7939;50.814;6.368;2023-02-08T10:30:53;101970.50;;;6.15;53.02
15678;BME280;7939;50.814;6.368;2023-02-08T10:33:26;101967.75;;;6.11;53.05
15678;BME280;7939;50.814;6.368;2023-02-08T10:35:54;101978.56;;;6.23;52.86
15678;BME280;7939;50.814;6.368;2023-02-08T10:38:25;101971.88;;;6.25;52.87
15678;BME280;7939;50.814;6.368;2023-02-08T10:40:56;101969.81;;;6.18;52.08
15678;BME280;7939;50.814;6.368;2023-02-08T10:43:30;101975.47;;;6.29;52.86
15678;BME280;7939;50.814;6.368;2023-02-08T10:46:04;101976.16;;;6.26;51.30
15678;BME280;7939;50.814;6.368;2023-02-08T10:48:43;101972.13;;;6.30;52.17
15678;BME280;7939;50.814;6.368;2023-02-08T10:51:14;101969.91;;;6.36;53.51
15678;BME280;7939;50.814;6.368;2023-02-08T10:53:41;101967.44;;;6.37;53.50
15678;BME280;7939;50.814;6.368;2023-02-08T10:56:20;101965.22;;;6.43;53.48
15678;BME280;7939;50.814;6.368;2023-02-08T10:58:49;101965.16;;;6.42;53.05
15678;BME280;7939;50.814;6.368;2023-02-08T11:01:16;101966.34;;;6.48;53.19
15678;BME280;7939;50.814;6.368;2023-02-08T11:04:03;101955.47;;;6.51;52.90
15678;BME280;7939;50.814;6.368;2023-02-08T11:06:30;101950.63;;;6.56;53.65
15678;BME280;7939;50.814;6.368;2023-02-08T11:08:56;101954.97;;;6.58;52.71
15678;BME280;7939;50.814;6.368;2023-02-08T11:11:24;101954.50;;;6.49;50.05
15678;BME280;7939;50.814;6.368;2023-02-08T11:14:04;101946.34;;;6.55;51.50
15678;BME280;7939;50.814;6.368;2023-02-08T11:16:32;101946.41;;;6.56;52.05
15678;BME280;7939;50.814;6.368;2023-02-08T11:19:01;101945.69;;;6.59;51.42
15678;BME280;7939;50.814;6.368;2023-02-08T11:21:32;101935.44;;;6.57;50.43
15678;BME280;7939;50.814;6.368;2023-02-08T11:24:16;101945.06;;;6.63;52.53
15678;BME280;7939;50.814;6.368;2023-02-08T11:26:47;101952.75;;;6.64;50.68
15678;BME280;7939;50.814;6.368;2023-02-08T11:29:16;101948.06;;;6.56;49.64
15678;BME280;7939;50.814;6.368;2023-02-08T11:31:56;101951.19;;;6.66;51.85
15678;BME280;7939;50.814;6.368;2023-02-08T11:34:26;101953.47;;;6.62;50.18
15678;BME280;7939;50.814;6.368;2023-02-08T11:36:53;101949.25;;;6.62;50.71
15678;BME280;7939;50.814;6.368;2023-02-08T11:39:22;101940.06;;;6.48;48.90
15678;BME280;7939;50.814;6.368;2023-02-08T11:41:52;101940.22;;;6.67;50.98
15678;BME280;7939;50.814;6.368;2023-02-08T11:44:22;101934.47;;;6.71;51.32
15678;BME280;7939;50.814;6.368;2023-02-08T11:46:52;101932.97;;;6.75;50.90
15678;BME280;7939;50.814;6.368;2023-02-08T11:49:21;101928.75;;;6.75;51.27
15678;BME280;7939;50.814;6.368;2023-02-08T11:51:50;101930.44;;;6.75;50.02
15678;BME280;7939;50.814;6.368;2023-02-08T11:54:36;101933.28;;;6.81;51.95
15678;BME280;7939;50.814;6.368;2023-02-08T11:57:11;101932.53;;;6.84;52.08
15678;BME280;7939;50.814;6.368;2023-02-08T11:59:38;101916.34;;;6.82;50.36
15678;BME280;7939;50.814;6.368;2023-02-08T12:02:26;101920.88;;;6.87;50.94
15678;BME280;7939;50.814;6.368;2023-02-08T12:04:53;101910.84;;;6.90;51.50
15678;BME280;7939;50.814;6.368;2023-02-08T12:07:26;101902.59;;;6.94;51.38
15678;BME280;7939;50.814;6.368;2023-02-08T12:10:10;101902.66;;;6.96;52.10
15678;BME280;7939;50.814;6.368;2023-02-08T12:13:31;101895.09;;;6.97;51.46
15678;BME280;7939;50.814;6.368;2023-02-08T12:16:08;101896.88;;;6.98;51.82
15678;BME280;7939;50.814;6.368;2023-02-08T12:18:49;101887.69;;;7.02;52.94
15678;BME280;7939;50.814;6.368;2023-02-08T12:21:22;101876.81;;;7.05;51.88
15678;BME280;7939;50.814;6.368;2023-02-08T12:23:54;101880.31;;;7.07;52.31
15678;BME280;7939;50.814;6.368;2023-02-08T12:26:31;101880.44;;;7.10;52.60
15678;BME280;7939;50.814;6.368;2023-02-08T12:29:23;101877.13;;;7.11;51.86
15678;BME280;7939;50.814;6.368;2023-02-08T12:32:03;101867.00;;;7.12;51.50
15678;BME280;7939;50.814;6.368;2023-02-08T12:34:46;101863.66;;;7.13;51.92
15678;BME280;7939;50.814;6.368;2023-02-08T12:37:25;101862.06;;;7.15;51.42
15678;BME280;7939;50.814;6.368;2023-02-08T12:40:24;101857.25;;;7.21;52.67
15678;BME280;7939;50.814;6.368;2023-02-08T12:43:22;101850.50;;;7.22;51.86
15678;BME280;7939;50.814;6.368;2023-02-08T12:46:01;101840.34;;;7.22;52.26
15678;BME280;7939;50.814;6.368;2023-02-08T12:49:00;101844.72;;;7.24;51.96
15678;BME280;7939;50.814;6.368;2023-02-08T12:51:36;101836.28;;;7.25;51.93
15678;BME280;7939;50.814;6.368;2023-02-08T12:54:08;101837.28;;;7.29;52.51
15678;BME280;7939;50.814;6.368;2023-02-08T12:56:40;101838.25;;;7.31;51.68
15678;BME280;7939;50.814;6.368;2023-02-08T12:59:18;101835.75;;;7.33;51.40
15678;BME280;7939;50.814;6.368;2023-02-08T13:01:50;101835.81;;;7.34;51.97
15678;BME280;7939;50.814;6.368;2023-02-08T13:04:24;101837.50;;;7.34;51.19
15678;BME280;7939;50.814;6.368;2023-02-08T13:06:56;101828.88;;;7.30;50.81
15678;BME280;7939;50.814;6.368;2023-02-08T13:09:34;101829.75;;;7.30;50.08
15678;BME280;7939;50.814;6.368;2023-02-08T13:12:12;101825.47;;;7.29;51.48
15678;BME280;7939;50.814;6.368;2023-02-08T13:14:44;101815.56;;;7.36;51.08
15678;BME280;7939;50.814;6.368;2023-02-08T13:17:15;101819.84;;;7.37;51.20
15678;BME280;7939;50.814;6.368;2023-02-08T13:19:49;101818.13;;;7.36;50.75
15678;BME280;7939;50.814;6.368;2023-02-08T13:22:18;101816.28;;;7.33;48.88
15678;BME280;7939;50.814;6.368;2023-02-08T13:24:46;101808.88;;;7.20;46.69
15678;BME280;7939;50.814;6.368;2023-02-08T13:27:17;101804.44;;;7.34;50.24